Terminal Aerodrome Forecast
Issued by NWS

Home | Current Version | Previous Version | Text Only | Print | Product List | Glossary On
Versions: 1 2 3 4 5 6 7 8 9 10 11 12 13 14 15 16
000
FTUS43 KDLH 252100 AAA
TAFHIB
TAF AMD
KHIB 252156Z 2522/2618 31003KT P6SM -SN BKN018 OVC025
     FM260400 34005KT P6SM -SN OVC012
     FM261500 35010KT P6SM -SN OVC020=

USA.gov is the U.S. government's official web portal to all federal, state and local government web resources and services.